sensor_id;sensor_type;location;lat;lon;timestamp;P1;durP1;ratioP1;P2;durP2;ratioP2
63818;SDS011;49970;54.976;73.248;2022-10-19T00:01:16;8.77;;;6.10;;
63818;SDS011;49970;54.976;73.248;2022-10-19T00:03:45;10.60;;;6.05;;
63818;SDS011;49970;54.976;73.248;2022-10-19T00:06:22;7.50;;;6.13;;
63818;SDS011;49970;54.976;73.248;2022-10-19T00:11:22;6.70;;;5.88;;
63818;SDS011;49970;54.976;73.248;2022-10-19T00:13:49;13.82;;;6.68;;
63818;SDS011;49970;54.976;73.248;2022-10-19T00:16:16;14.57;;;6.25;;
63818;SDS011;49970;54.976;73.248;2022-10-19T00:18:44;8.45;;;5.47;;
63818;SDS011;49970;54.976;73.248;2022-10-19T00:21:11;7.90;;;6.47;;
63818;SDS011;49970;54.976;73.248;2022-10-19T00:23:40;10.30;;;5.60;;
63818;SDS011;49970;54.976;73.248;2022-10-19T00:26:06;7.00;;;5.82;;
63818;SDS011;49970;54.976;73.248;2022-10-19T00:28:33;10.93;;;5.75;;
63818;SDS011;49970;54.976;73.248;2022-10-19T00:31:11;6.55;;;5.88;;
63818;SDS011;49970;54.976;73.248;2022-10-19T00:33:40;10.50;;;5.93;;
63818;SDS011;49970;54.976;73.248;2022-10-19T00:36:13;13.07;;;5.55;;
63818;SDS011;49970;54.976;73.248;2022-10-19T00:38:41;18.88;;;5.68;;
63818;SDS011;49970;54.976;73.248;2022-10-19T00:41:07;10.73;;;5.85;;
63818;SDS011;49970;54.976;73.248;2022-10-19T00:43:50;12.98;;;5.18;;
63818;SDS011;49970;54.976;73.248;2022-10-19T00:46:18;9.25;;;5.10;;
63818;SDS011;49970;54.976;73.248;2022-10-19T00:48:44;9.60;;;5.43;;
63818;SDS011;49970;54.976;73.248;2022-10-19T00:51:11;8.80;;;5.13;;
63818;SDS011;49970;54.976;73.248;2022-10-19T00:53:38;8.63;;;4.90;;
63818;SDS011;49970;54.976;73.248;2022-10-19T00:56:05;15.43;;;5.45;;
63818;SDS011;49970;54.976;73.248;2022-10-19T00:58:46;9.23;;;5.70;;
63818;SDS011;49970;54.976;73.248;2022-10-19T01:01:15;9.15;;;4.80;;
63818;SDS011;49970;54.976;73.248;2022-10-19T01:03:43;13.32;;;5.15;;
63818;SDS011;49970;54.976;73.248;2022-10-19T01:06:13;5.55;;;5.05;;
63818;SDS011;49970;54.976;73.248;2022-10-19T01:08:45;13.45;;;4.93;;
63818;SDS011;49970;54.976;73.248;2022-10-19T01:14:20;7.03;;;5.13;;
63818;SDS011;49970;54.976;73.248;2022-10-19T01:39:34;12.52;;;4.78;;
63818;SDS011;49970;54.976;73.248;2022-10-19T01:47:37;8.73;;;5.63;;
63818;SDS011;49970;54.976;73.248;2022-10-19T01:50:20;9.18;;;5.53;;
63818;SDS011;49970;54.976;73.248;2022-10-19T01:52:56;10.98;;;5.03;;
63818;SDS011;49970;54.976;73.248;2022-10-19T01:55:24;10.98;;;5.32;;
63818;SDS011;49970;54.976;73.248;2022-10-19T01:58:00;14.18;;;5.53;;
63818;SDS011;49970;54.976;73.248;2022-10-19T02:00:29;17.70;;;7.03;;
63818;SDS011;49970;54.976;73.248;2022-10-19T02:02:57;16.75;;;7.15;;
63818;SDS011;49970;54.976;73.248;2022-10-19T02:05:31;9.80;;;6.32;;
63818;SDS011;49970;54.976;73.248;2022-10-19T02:08:01;9.32;;;5.72;;
63818;SDS011;49970;54.976;73.248;2022-10-19T02:10:31;5.90;;;5.30;;
63818;SDS011;49970;54.976;73.248;2022-10-19T02:13:02;8.45;;;4.90;;
63818;SDS011;49970;54.976;73.248;2022-10-19T02:15:33;16.27;;;5.82;;
63818;SDS011;49970;54.976;73.248;2022-10-19T02:18:14;10.07;;;5.20;;
63818;SDS011;49970;54.976;73.248;2022-10-19T02:20:55;12.18;;;5.55;;
63818;SDS011;49970;54.976;73.248;2022-10-19T02:23:23;11.00;;;6.20;;
63818;SDS011;49970;54.976;73.248;2022-10-19T02:25:51;16.25;;;6.55;;
63818;SDS011;49970;54.976;73.248;2022-10-19T02:28:18;9.45;;;6.97;;
63818;SDS011;49970;54.976;73.248;2022-10-19T02:30:46;11.00;;;7.50;;
63818;SDS011;49970;54.976;73.248;2022-10-19T02:33:23;15.77;;;8.40;;
63818;SDS011;49970;54.976;73.248;2022-10-19T02:35:49;11.57;;;7.30;;
63818;SDS011;49970;54.976;73.248;2022-10-19T02:38:18;15.60;;;7.97;;
63818;SDS011;49970;54.976;73.248;2022-10-19T02:43:25;10.52;;;6.72;;
63818;SDS011;49970;54.976;73.248;2022-10-19T02:46:01;9.13;;;7.05;;
63818;SDS011;49970;54.976;73.248;2022-10-19T02:48:32;12.85;;;7.20;;
63818;SDS011;49970;54.976;73.248;2022-10-19T02:51:01;18.05;;;7.60;;
63818;SDS011;49970;54.976;73.248;2022-10-19T02:53:27;17.45;;;8.65;;
63818;SDS011;49970;54.976;73.248;2022-10-19T02:55:53;11.55;;;8.73;;
63818;SDS011;49970;54.976;73.248;2022-10-19T02:58:20;16.40;;;8.65;;
63818;SDS011;49970;54.976;73.248;2022-10-19T03:00:56;11.52;;;8.07;;
63818;SDS011;49970;54.976;73.248;2022-10-19T03:03:22;20.48;;;7.72;;
63818;SDS011;49970;54.976;73.248;2022-10-19T03:05:48;15.93;;;8.57;;
63818;SDS011;49970;54.976;73.248;2022-10-19T03:08:15;8.50;;;5.93;;
63818;SDS011;49970;54.976;73.248;2022-10-19T03:10:41;12.07;;;5.05;;
63818;SDS011;49970;54.976;73.248;2022-10-19T03:13:08;8.63;;;5.70;;
63818;SDS011;49970;54.976;73.248;2022-10-19T03:15:37;9.45;;;5.25;;
63818;SDS011;49970;54.976;73.248;2022-10-19T03:18:04;5.95;;;5.32;;
63818;SDS011;49970;54.976;73.248;2022-10-19T03:20:30;18.38;;;5.95;;
63818;SDS011;49970;54.976;73.248;2022-10-19T03:22:56;8.07;;;5.80;;
63818;SDS011;49970;54.976;73.248;2022-10-19T03:25:22;13.93;;;5.75;;
63818;SDS011;49970;54.976;73.248;2022-10-19T03:27:52;17.02;;;6.43;;
63818;SDS011;49970;54.976;73.248;2022-10-19T03:30:22;17.73;;;5.63;;
63818;SDS011;49970;54.976;73.248;2022-10-19T03:32:48;8.63;;;5.10;;
63818;SDS011;49970;54.976;73.248;2022-10-19T03:35:14;5.38;;;4.68;;
63818;SDS011;49970;54.976;73.248;2022-10-19T03:37:51;7.57;;;5.55;;
63818;SDS011;49970;54.976;73.248;2022-10-19T03:40:17;9.85;;;4.63;;
63818;SDS011;49970;54.976;73.248;2022-10-19T03:42:43;11.02;;;4.47;;
63818;SDS011;49970;54.976;73.248;2022-10-19T03:45:14;11.65;;;5.30;;
63818;SDS011;49970;54.976;73.248;2022-10-19T03:47:40;7.80;;;5.10;;
63818;SDS011;49970;54.976;73.248;2022-10-19T03:50:07;11.48;;;4.85;;
63818;SDS011;49970;54.976;73.248;2022-10-19T03:52:35;6.95;;;4.80;;
63818;SDS011;49970;54.976;73.248;2022-10-19T03:55:02;7.63;;;4.40;;
63818;SDS011;49970;54.976;73.248;2022-10-19T03:57:28;10.55;;;5.05;;
63818;SDS011;49970;54.976;73.248;2022-10-19T04:00:04;14.43;;;5.05;;
63818;SDS011;49970;54.976;73.248;2022-10-19T04:02:37;11.30;;;5.10;;
63818;SDS011;49970;54.976;73.248;2022-10-19T04:05:03;12.93;;;4.90;;
63818;SDS011;49970;54.976;73.248;2022-10-19T04:07:30;9.02;;;4.57;;
63818;SDS011;49970;54.976;73.248;2022-10-19T04:09:56;12.43;;;4.28;;
63818;SDS011;49970;54.976;73.248;2022-10-19T04:12:27;9.38;;;4.43;;
63818;SDS011;49970;54.976;73.248;2022-10-19T04:14:53;8.23;;;4.80;;
63818;SDS011;49970;54.976;73.248;2022-10-19T04:17:19;6.47;;;4.18;;
63818;SDS011;49970;54.976;73.248;2022-10-19T04:19:46;11.73;;;4.47;;
63818;SDS011;49970;54.976;73.248;2022-10-19T04:22:12;7.20;;;4.93;;
63818;SDS011;49970;54.976;73.248;2022-10-19T04:24:38;8.80;;;4.53;;
63818;SDS011;49970;54.976;73.248;2022-10-19T04:27:04;11.52;;;5.45;;
63818;SDS011;49970;54.976;73.248;2022-10-19T04:29:30;11.57;;;5.00;;
63818;SDS011;49970;54.976;73.248;2022-10-19T04:31:57;6.85;;;4.13;;
63818;SDS011;49970;54.976;73.248;2022-10-19T04:34:24;7.63;;;4.90;;
63818;SDS011;49970;54.976;73.248;2022-10-19T04:36:51;14.23;;;4.25;;
63818;SDS011;49970;54.976;73.248;2022-10-19T04:39:27;25.33;;;5.10;;
63818;SDS011;49970;54.976;73.248;2022-10-19T04:41:54;17.40;;;4.38;;
63818;SDS011;49970;54.976;73.248;2022-10-19T04:44:20;21.80;;;5.47;;
63818;SDS011;49970;54.976;73.248;2022-10-19T04:46:46;10.13;;;4.25;;
63818;SDS011;49970;54.976;73.248;2022-10-19T04:49:12;13.57;;;4.80;;
63818;SDS011;49970;54.976;73.248;2022-10-19T04:51:45;14.43;;;4.75;;
63818;SDS011;49970;54.976;73.248;2022-10-19T04:54:12;17.13;;;5.68;;
63818;SDS011;49970;54.976;73.248;2022-10-19T04:56:38;6.38;;;4.38;;
63818;SDS011;49970;54.976;73.248;2022-10-19T04:59:05;13.95;;;3.90;;
63818;SDS011;49970;54.976;73.248;2022-10-19T05:01:31;4.68;;;4.03;;
63818;SDS011;49970;54.976;73.248;2022-10-19T05:03:59;8.00;;;4.03;;
63818;SDS011;49970;54.976;73.248;2022-10-19T05:06:27;5.38;;;3.85;;
63818;SDS011;49970;54.976;73.248;2022-10-19T05:08:54;5.65;;;4.20;;
63818;SDS011;49970;54.976;73.248;2022-10-19T05:11:21;6.50;;;4.35;;
63818;SDS011;49970;54.976;73.248;2022-10-19T05:13:48;9.93;;;4.07;;
63818;SDS011;49970;54.976;73.248;2022-10-19T05:16:17;10.57;;;4.25;;
63818;SDS011;49970;54.976;73.248;2022-10-19T05:18:48;8.70;;;5.00;;
63818;SDS011;49970;54.976;73.248;2022-10-19T05:21:17;12.85;;;5.03;;
63818;SDS011;49970;54.976;73.248;2022-10-19T05:23:45;9.00;;;5.10;;
63818;SDS011;49970;54.976;73.248;2022-10-19T05:26:13;14.02;;;5.32;;
63818;SDS011;49970;54.976;73.248;2022-10-19T05:29:53;6.15;;;5.40;;
63818;SDS011;49970;54.976;73.248;2022-10-19T05:32:29;7.65;;;4.60;;
63818;SDS011;49970;54.976;73.248;2022-10-19T05:34:56;6.32;;;4.30;;
63818;SDS011;49970;54.976;73.248;2022-10-19T05:37:22;7.97;;;4.25;;
63818;SDS011;49970;54.976;73.248;2022-10-19T05:39:50;7.72;;;4.72;;
63818;SDS011;49970;54.976;73.248;2022-10-19T05:42:26;11.32;;;4.53;;
63818;SDS011;49970;54.976;73.248;2022-10-19T05:44:53;5.35;;;4.82;;
63818;SDS011;49970;54.976;73.248;2022-10-19T05:47:20;7.68;;;5.30;;
63818;SDS011;49970;54.976;73.248;2022-10-19T05:49:46;10.93;;;5.20;;
63818;SDS011;49970;54.976;73.248;2022-10-19T05:52:13;6.80;;;4.90;;
63818;SDS011;49970;54.976;73.248;2022-10-19T05:54:39;12.25;;;4.53;;
63818;SDS011;49970;54.976;73.248;2022-10-19T05:57:06;6.72;;;5.20;;
63818;SDS011;49970;54.976;73.248;2022-10-19T05:59:32;13.80;;;4.97;;
63818;SDS011;49970;54.976;73.248;2022-10-19T06:01:58;5.45;;;4.93;;
63818;SDS011;49970;54.976;73.248;2022-10-19T06:04:25;10.25;;;4.80;;
63818;SDS011;49970;54.976;73.248;2022-10-19T06:06:51;11.32;;;4.88;;
63818;SDS011;49970;54.976;73.248;2022-10-19T06:09:27;6.70;;;4.32;;
63818;SDS011;49970;54.976;73.248;2022-10-19T06:12:00;5.68;;;4.20;;
63818;SDS011;49970;54.976;73.248;2022-10-19T06:14:38;8.35;;;4.65;;
63818;SDS011;49970;54.976;73.248;2022-10-19T06:17:04;10.95;;;4.30;;
63818;SDS011;49970;54.976;73.248;2022-10-19T06:19:36;3.83;;;3.55;;
63818;SDS011;49970;54.976;73.248;2022-10-19T06:22:02;3.85;;;3.55;;
63818;SDS011;49970;54.976;73.248;2022-10-19T06:24:28;8.23;;;3.97;;
63818;SDS011;49970;54.976;73.248;2022-10-19T06:26:55;4.63;;;4.07;;
63818;SDS011;49970;54.976;73.248;2022-10-19T06:29:21;3.92;;;3.63;;
63818;SDS011;49970;54.976;73.248;2022-10-19T06:31:47;5.05;;;3.72;;
63818;SDS011;49970;54.976;73.248;2022-10-19T06:34:13;14.32;;;3.70;;
63818;SDS011;49970;54.976;73.248;2022-10-19T06:36:40;8.65;;;3.83;;
63818;SDS011;49970;54.976;73.248;2022-10-19T06:39:06;7.63;;;3.45;;
63818;SDS011;49970;54.976;73.248;2022-10-19T06:41:32;6.07;;;3.55;;
63818;SDS011;49970;54.976;73.248;2022-10-19T06:45:25;8.57;;;4.35;;
63818;SDS011;49970;54.976;73.248;2022-10-19T06:49:15;6.88;;;3.53;;
63818;SDS011;49970;54.976;73.248;2022-10-19T06:53:06;5.63;;;3.22;;
63818;SDS011;49970;54.976;73.248;2022-10-19T06:56:56;10.45;;;3.50;;
63818;SDS011;49970;54.976;73.248;2022-10-19T07:04:57;12.63;;;3.15;;
63818;SDS011;49970;54.976;73.248;2022-10-19T07:07:26;5.53;;;3.47;;
63818;SDS011;49970;54.976;73.248;2022-10-19T07:09:57;7.15;;;3.58;;
63818;SDS011;49970;54.976;73.248;2022-10-19T07:12:29;3.85;;;3.30;;
63818;SDS011;49970;54.976;73.248;2022-10-19T07:15:04;3.58;;;3.15;;
63818;SDS011;49970;54.976;73.248;2022-10-19T07:17:34;9.23;;;3.33;;
63818;SDS011;49970;54.976;73.248;2022-10-19T07:20:05;17.20;;;3.33;;
63818;SDS011;49970;54.976;73.248;2022-10-19T07:22:36;8.85;;;2.88;;
63818;SDS011;49970;54.976;73.248;2022-10-19T07:25:08;3.97;;;3.42;;
63818;SDS011;49970;54.976;73.248;2022-10-19T07:27:39;5.05;;;3.83;;
63818;SDS011;49970;54.976;73.248;2022-10-19T07:30:13;8.32;;;4.30;;
63818;SDS011;49970;54.976;73.248;2022-10-19T07:32:43;10.38;;;4.57;;
63818;SDS011;49970;54.976;73.248;2022-10-19T07:35:15;4.22;;;3.67;;
63818;SDS011;49970;54.976;73.248;2022-10-19T07:37:51;9.68;;;3.63;;
63818;SDS011;49970;54.976;73.248;2022-10-19T07:40:21;10.48;;;3.53;;
63818;SDS011;49970;54.976;73.248;2022-10-19T07:42:58;3.40;;;3.10;;
63818;SDS011;49970;54.976;73.248;2022-10-19T07:45:29;4.07;;;3.67;;
63818;SDS011;49970;54.976;73.248;2022-10-19T07:47:58;8.75;;;3.17;;
63818;SDS011;49970;54.976;73.248;2022-10-19T07:50:29;4.13;;;3.00;;
63818;SDS011;49970;54.976;73.248;2022-10-19T07:53:00;3.63;;;3.33;;
63818;SDS011;49970;54.976;73.248;2022-10-19T07:55:32;4.35;;;3.67;;
63818;SDS011;49970;54.976;73.248;2022-10-19T07:58:03;3.90;;;3.38;;
63818;SDS011;49970;54.976;73.248;2022-10-19T08:00:34;4.38;;;3.40;;
63818;SDS011;49970;54.976;73.248;2022-10-19T08:03:03;6.90;;;3.60;;
63818;SDS011;49970;54.976;73.248;2022-10-19T08:05:34;7.70;;;2.90;;
63818;SDS011;49970;54.976;73.248;2022-10-19T08:08:04;7.55;;;3.42;;
63818;SDS011;49970;54.976;73.248;2022-10-19T08:10:36;4.03;;;3.45;;
63818;SDS011;49970;54.976;73.248;2022-10-19T08:13:07;6.72;;;3.63;;
63818;SDS011;49970;54.976;73.248;2022-10-19T08:15:38;6.03;;;3.08;;
63818;SDS011;49970;54.976;73.248;2022-10-19T08:18:09;4.07;;;3.30;;
63818;SDS011;49970;54.976;73.248;2022-10-19T08:20:40;4.07;;;2.45;;
63818;SDS011;49970;54.976;73.248;2022-10-19T08:23:18;3.45;;;3.05;;
63818;SDS011;49970;54.976;73.248;2022-10-19T08:25:57;4.00;;;2.78;;
63818;SDS011;49970;54.976;73.248;2022-10-19T08:28:30;3.67;;;2.75;;
63818;SDS011;49970;54.976;73.248;2022-10-19T08:32:21;9.45;;;2.38;;
63818;SDS011;49970;54.976;73.248;2022-10-19T08:36:12;9.70;;;3.03;;
63818;SDS011;49970;54.976;73.248;2022-10-19T08:40:04;6.13;;;2.40;;
63818;SDS011;49970;54.976;73.248;2022-10-19T08:44:08;4.68;;;2.50;;
63818;SDS011;49970;54.976;73.248;2022-10-19T08:49:52;5.93;;;2.65;;
63818;SDS011;49970;54.976;73.248;2022-10-19T08:52:25;3.30;;;3.00;;
63818;SDS011;49970;54.976;73.248;2022-10-19T08:54:56;3.47;;;2.78;;
63818;SDS011;49970;54.976;73.248;2022-10-19T09:00:42;8.55;;;3.00;;
63818;SDS011;49970;54.976;73.248;2022-10-19T09:09:14;5.68;;;3.10;;
63818;SDS011;49970;54.976;73.248;2022-10-19T09:11:46;4.20;;;3.35;;
63818;SDS011;49970;54.976;73.248;2022-10-19T09:17:22;17.02;;;3.28;;
63818;SDS011;49970;54.976;73.248;2022-10-19T09:19:50;10.60;;;2.60;;
63818;SDS011;49970;54.976;73.248;2022-10-19T09:22:20;5.32;;;3.05;;
63818;SDS011;49970;54.976;73.248;2022-10-19T09:24:57;11.77;;;3.13;;
63818;SDS011;49970;54.976;73.248;2022-10-19T09:27:29;3.70;;;3.30;;
63818;SDS011;49970;54.976;73.248;2022-10-19T09:30:02;6.75;;;3.13;;
63818;SDS011;49970;54.976;73.248;2022-10-19T09:32:39;2.58;;;2.38;;
63818;SDS011;49970;54.976;73.248;2022-10-19T09:38:04;16.27;;;3.00;;
63818;SDS011;49970;54.976;73.248;2022-10-19T09:40:32;8.30;;;2.92;;
63818;SDS011;49970;54.976;73.248;2022-10-19T09:42:59;3.17;;;2.97;;
63818;SDS011;49970;54.976;73.248;2022-10-19T09:51:16;11.65;;;3.72;;
63818;SDS011;49970;54.976;73.248;2022-10-19T09:53:44;3.42;;;3.13;;
63818;SDS011;49970;54.976;73.248;2022-10-19T09:56:18;3.08;;;2.88;;
63818;SDS011;49970;54.976;73.248;2022-10-19T09:58:47;6.15;;;3.08;;
63818;SDS011;49970;54.976;73.248;2022-10-19T10:01:34;6.35;;;4.30;;
63818;SDS011;49970;54.976;73.248;2022-10-19T10:04:06;4.32;;;3.55;;
63818;SDS011;49970;54.976;73.248;2022-10-19T10:06:39;3.50;;;2.95;;
63818;SDS011;49970;54.976;73.248;2022-10-19T10:09:06;5.00;;;3.00;;
63818;SDS011;49970;54.976;73.248;2022-10-19T10:11:33;5.50;;;3.40;;
63818;SDS011;49970;54.976;73.248;2022-10-19T10:14:04;4.63;;;3.47;;
63818;SDS011;49970;54.976;73.248;2022-10-19T10:16:41;6.57;;;3.25;;
63818;SDS011;49970;54.976;73.248;2022-10-19T10:19:10;11.23;;;3.25;;
63818;SDS011;49970;54.976;73.248;2022-10-19T10:21:47;5.28;;;3.40;;
63818;SDS011;49970;54.976;73.248;2022-10-19T10:24:16;4.88;;;3.25;;
63818;SDS011;49970;54.976;73.248;2022-10-19T10:26:46;12.40;;;2.97;;
63818;SDS011;49970;54.976;73.248;2022-10-19T10:29:28;11.95;;;3.00;;
63818;SDS011;49970;54.976;73.248;2022-10-19T10:31:57;8.05;;;3.10;;
63818;SDS011;49970;54.976;73.248;2022-10-19T10:34:30;3.08;;;2.88;;
63818;SDS011;49970;54.976;73.248;2022-10-19T10:36:59;3.67;;;3.33;;
63818;SDS011;49970;54.976;73.248;2022-10-19T10:39:27;7.00;;;2.95;;
63818;SDS011;49970;54.976;73.248;2022-10-19T10:41:55;3.88;;;3.10;;
63818;SDS011;49970;54.976;73.248;2022-10-19T10:44:33;8.77;;;3.72;;
63818;SDS011;49970;54.976;73.248;2022-10-19T10:47:02;8.20;;;3.45;;
63818;SDS011;49970;54.976;73.248;2022-10-19T10:51:59;5.80;;;2.97;;
63818;SDS011;49970;54.976;73.248;2022-10-19T10:54:31;14.90;;;4.38;;
63818;SDS011;49970;54.976;73.248;2022-10-19T10:59:46;27.73;;;3.53;;
63818;SDS011;49970;54.976;73.248;2022-10-19T11:02:35;9.90;;;4.00;;
63818;SDS011;49970;54.976;73.248;2022-10-19T11:05:12;6.25;;;3.58;;
63818;SDS011;49970;54.976;73.248;2022-10-19T11:07:48;7.75;;;3.10;;
63818;SDS011;49970;54.976;73.248;2022-10-19T11:10:30;6.80;;;2.90;;
63818;SDS011;49970;54.976;73.248;2022-10-19T11:16:13;23.50;;;3.78;;
63818;SDS011;49970;54.976;73.248;2022-10-19T11:18:46;11.60;;;3.67;;
63818;SDS011;49970;54.976;73.248;2022-10-19T11:30:34;23.95;;;4.25;;
63818;SDS011;49970;54.976;73.248;2022-10-19T11:32:56;18.50;;;4.25;;
63818;SDS011;49970;54.976;73.248;2022-10-19T11:36:11;4.75;;;3.65;;
63818;SDS011;49970;54.976;73.248;2022-10-19T11:38:46;9.70;;;3.55;;
63818;SDS011;49970;54.976;73.248;2022-10-19T11:44:14;8.20;;;2.80;;
63818;SDS011;49970;54.976;73.248;2022-10-19T11:52:13;6.78;;;4.32;;
63818;SDS011;49970;54.976;73.248;2022-10-19T12:00:48;7.18;;;4.47;;
63818;SDS011;49970;54.976;73.248;2022-10-19T12:03:29;6.50;;;5.03;;
63818;SDS011;49970;54.976;73.248;2022-10-19T12:12:36;4.88;;;3.22;;
63818;SDS011;49970;54.976;73.248;2022-10-19T12:17:36;7.50;;;3.45;;
63818;SDS011;49970;54.976;73.248;2022-10-19T12:23:27;6.88;;;3.45;;
63818;SDS011;49970;54.976;73.248;2022-10-19T12:26:07;4.60;;;3.53;;
63818;SDS011;49970;54.976;73.248;2022-10-19T12:28:37;6.63;;;2.97;;
63818;SDS011;49970;54.976;73.248;2022-10-19T12:31:16;10.95;;;3.28;;
63818;SDS011;49970;54.976;73.248;2022-10-19T12:33:55;5.90;;;2.80;;
63818;SDS011;49970;54.976;73.248;2022-10-19T12:42:43;6.05;;;3.58;;
63818;SDS011;49970;54.976;73.248;2022-10-19T13:01:19;5.60;;;4.13;;
63818;SDS011;49970;54.976;73.248;2022-10-19T13:06:50;5.10;;;4.60;;
63818;SDS011;49970;54.976;73.248;2022-10-19T13:14:41;8.38;;;4.88;;
63818;SDS011;49970;54.976;73.248;2022-10-19T13:22:41;8.73;;;5.22;;
63818;SDS011;49970;54.976;73.248;2022-10-19T13:25:37;5.97;;;4.85;;
63818;SDS011;49970;54.976;73.248;2022-10-19T13:41:17;5.90;;;5.40;;
63818;SDS011;49970;54.976;73.248;2022-10-19T14:04:10;8.20;;;6.97;;
63818;SDS011;49970;54.976;73.248;2022-10-19T14:06:56;10.13;;;7.47;;
63818;SDS011;49970;54.976;73.248;2022-10-19T14:12:23;7.80;;;7.10;;
63818;SDS011;49970;54.976;73.248;2022-10-19T14:14:51;7.68;;;7.03;;
63818;SDS011;49970;54.976;73.248;2022-10-19T14:17:24;9.65;;;6.35;;
63818;SDS011;49970;54.976;73.248;2022-10-19T14:19:59;7.68;;;7.05;;
63818;SDS011;49970;54.976;73.248;2022-10-19T14:22:30;10.80;;;6.75;;
63818;SDS011;49970;54.976;73.248;2022-10-19T14:27:36;19.38;;;7.57;;
63818;SDS011;49970;54.976;73.248;2022-10-19T14:30:03;9.77;;;8.45;;
63818;SDS011;49970;54.976;73.248;2022-10-19T14:32:31;10.57;;;8.98;;
63818;SDS011;49970;54.976;73.248;2022-10-19T14:35:03;11.15;;;8.45;;
63818;SDS011;49970;54.976;73.248;2022-10-19T14:37:41;10.52;;;7.90;;
63818;SDS011;49970;54.976;73.248;2022-10-19T14:42:47;10.15;;;7.63;;
63818;SDS011;49970;54.976;73.248;2022-10-19T14:46:30;7.65;;;6.82;;
63818;SDS011;49970;54.976;73.248;2022-10-19T14:50:22;9.40;;;6.28;;
63818;SDS011;49970;54.976;73.248;2022-10-19T14:56:03;7.57;;;6.82;;
63818;SDS011;49970;54.976;73.248;2022-10-19T14:58:39;10.85;;;7.35;;
63818;SDS011;49970;54.976;73.248;2022-10-19T15:01:11;9.75;;;7.07;;
63818;SDS011;49970;54.976;73.248;2022-10-19T15:03:39;8.48;;;7.63;;
63818;SDS011;49970;54.976;73.248;2022-10-19T15:06:07;11.23;;;7.95;;
63818;SDS011;49970;54.976;73.248;2022-10-19T15:08:47;11.15;;;7.65;;
63818;SDS011;49970;54.976;73.248;2022-10-19T15:14:08;9.38;;;8.32;;
63818;SDS011;49970;54.976;73.248;2022-10-19T15:19:18;12.48;;;10.45;;
63818;SDS011;49970;54.976;73.248;2022-10-19T15:24:55;12.13;;;10.02;;
63818;SDS011;49970;54.976;73.248;2022-10-19T15:27:35;15.05;;;10.43;;
63818;SDS011;49970;54.976;73.248;2022-10-19T15:32:42;17.27;;;10.02;;
63818;SDS011;49970;54.976;73.248;2022-10-19T15:35:33;11.52;;;10.30;;
63818;SDS011;49970;54.976;73.248;2022-10-19T15:38:19;15.68;;;9.95;;
63818;SDS011;49970;54.976;73.248;2022-10-19T15:40:59;11.20;;;9.55;;
63818;SDS011;49970;54.976;73.248;2022-10-19T15:54:00;16.48;;;11.77;;
63818;SDS011;49970;54.976;73.248;2022-10-19T15:56:29;12.20;;;10.57;;
63818;SDS011;49970;54.976;73.248;2022-10-19T15:59:10;12.73;;;11.13;;
63818;SDS011;49970;54.976;73.248;2022-10-19T16:01:39;15.23;;;10.48;;
63818;SDS011;49970;54.976;73.248;2022-10-19T16:04:06;12.82;;;11.50;;
63818;SDS011;49970;54.976;73.248;2022-10-19T16:06:38;13.82;;;11.60;;
63818;SDS011;49970;54.976;73.248;2022-10-19T16:09:19;18.40;;;11.55;;
63818;SDS011;49970;54.976;73.248;2022-10-19T16:11:46;15.15;;;10.98;;
63818;SDS011;49970;54.976;73.248;2022-10-19T16:14:13;14.80;;;10.73;;
63818;SDS011;49970;54.976;73.248;2022-10-19T16:18:03;12.18;;;11.00;;
63818;SDS011;49970;54.976;73.248;2022-10-19T16:21:54;11.80;;;10.60;;
63818;SDS011;49970;54.976;73.248;2022-10-19T16:24:20;12.38;;;11.30;;
63818;SDS011;49970;54.976;73.248;2022-10-19T16:26:46;23.92;;;12.95;;
63818;SDS011;49970;54.976;73.248;2022-10-19T16:29:13;12.48;;;11.23;;
63818;SDS011;49970;54.976;73.248;2022-10-19T16:31:39;16.73;;;12.38;;
63818;SDS011;49970;54.976;73.248;2022-10-19T16:34:05;16.65;;;12.98;;
63818;SDS011;49970;54.976;73.248;2022-10-19T16:36:33;23.50;;;16.10;;
63818;SDS011;49970;54.976;73.248;2022-10-19T16:38:59;20.80;;;14.82;;
63818;SDS011;49970;54.976;73.248;2022-10-19T16:41:27;26.55;;;15.60;;
63818;SDS011;49970;54.976;73.248;2022-10-19T16:44:02;20.40;;;16.27;;
63818;SDS011;49970;54.976;73.248;2022-10-19T16:46:28;22.35;;;17.00;;
63818;SDS011;49970;54.976;73.248;2022-10-19T16:48:54;21.23;;;15.52;;
63818;SDS011;49970;54.976;73.248;2022-10-19T16:51:42;16.88;;;14.13;;
63818;SDS011;49970;54.976;73.248;2022-10-19T16:54:08;23.77;;;14.07;;
63818;SDS011;49970;54.976;73.248;2022-10-19T16:56:41;18.00;;;14.35;;
63818;SDS011;49970;54.976;73.248;2022-10-19T16:59:10;27.73;;;16.77;;
63818;SDS011;49970;54.976;73.248;2022-10-19T17:01:39;22.33;;;14.40;;
63818;SDS011;49970;54.976;73.248;2022-10-19T17:04:06;20.92;;;16.40;;
63818;SDS011;49970;54.976;73.248;2022-10-19T17:06:32;27.55;;;15.60;;
63818;SDS011;49970;54.976;73.248;2022-10-19T17:08:59;20.58;;;12.52;;
63818;SDS011;49970;54.976;73.248;2022-10-19T17:11:26;18.55;;;11.40;;
63818;SDS011;49970;54.976;73.248;2022-10-19T17:13:55;15.27;;;11.90;;
63818;SDS011;49970;54.976;73.248;2022-10-19T17:16:23;17.73;;;11.68;;
63818;SDS011;49970;54.976;73.248;2022-10-19T17:18:53;14.13;;;12.13;;
63818;SDS011;49970;54.976;73.248;2022-10-19T17:21:21;12.07;;;10.45;;
63818;SDS011;49970;54.976;73.248;2022-10-19T17:23:56;15.50;;;10.60;;
63818;SDS011;49970;54.976;73.248;2022-10-19T17:28:56;12.57;;;9.68;;
63818;SDS011;49970;54.976;73.248;2022-10-19T17:31:24;11.27;;;9.70;;
63818;SDS011;49970;54.976;73.248;2022-10-19T17:33:54;12.85;;;8.77;;
63818;SDS011;49970;54.976;73.248;2022-10-19T17:36:25;9.75;;;8.38;;
63818;SDS011;49970;54.976;73.248;2022-10-19T17:38:58;9.93;;;8.48;;
63818;SDS011;49970;54.976;73.248;2022-10-19T17:41:26;9.05;;;8.18;;
63818;SDS011;49970;54.976;73.248;2022-10-19T17:44:03;8.32;;;7.28;;
63818;SDS011;49970;54.976;73.248;2022-10-19T17:46:31;17.00;;;7.38;;
63818;SDS011;49970;54.976;73.248;2022-10-19T17:48:59;14.98;;;7.00;;
63818;SDS011;49970;54.976;73.248;2022-10-19T17:51:27;8.25;;;7.32;;
63818;SDS011;49970;54.976;73.248;2022-10-19T17:53:56;7.53;;;6.70;;
63818;SDS011;49970;54.976;73.248;2022-10-19T17:56:25;7.53;;;6.95;;
63818;SDS011;49970;54.976;73.248;2022-10-19T17:58:52;10.25;;;6.70;;
63818;SDS011;49970;54.976;73.248;2022-10-19T18:01:19;8.65;;;6.60;;
63818;SDS011;49970;54.976;73.248;2022-10-19T18:03:46;8.52;;;6.35;;
63818;SDS011;49970;54.976;73.248;2022-10-19T18:06:17;14.23;;;6.97;;
63818;SDS011;49970;54.976;73.248;2022-10-19T18:08:46;10.45;;;6.70;;
63818;SDS011;49970;54.976;73.248;2022-10-19T18:11:16;12.00;;;7.05;;
63818;SDS011;49970;54.976;73.248;2022-10-19T18:13:55;12.57;;;6.88;;
63818;SDS011;49970;54.976;73.248;2022-10-19T18:16:24;8.50;;;7.57;;
63818;SDS011;49970;54.976;73.248;2022-10-19T18:18:53;10.07;;;6.70;;
63818;SDS011;49970;54.976;73.248;2022-10-19T18:21:22;8.38;;;6.38;;
63818;SDS011;49970;54.976;73.248;2022-10-19T18:23:51;18.85;;;7.10;;
63818;SDS011;49970;54.976;73.248;2022-10-19T18:26:19;9.90;;;6.57;;
63818;SDS011;49970;54.976;73.248;2022-10-19T18:28:47;8.15;;;6.18;;
63818;SDS011;49970;54.976;73.248;2022-10-19T18:31:18;9.65;;;6.55;;
63818;SDS011;49970;54.976;73.248;2022-10-19T18:33:47;8.70;;;6.85;;
63818;SDS011;49970;54.976;73.248;2022-10-19T18:36:14;7.38;;;6.80;;
63818;SDS011;49970;54.976;73.248;2022-10-19T18:38:41;11.55;;;6.75;;